Agnew, Washington
Current Conditions -  °F | °C
As of 1:53 AM on Sunday 26 Oct 2014 (Local Time) from KCLM Reporting Station
Scattered Clouds Scattered Clouds  
Wind Chill: 50°   Ceiling: Unl
Heat Index: 50°   Visibility: 10mi
Dew Point: 41°   Wind: 12mph
Humidity: 71%   Direction: 250°WSW
Pressure: 29.76"   Gusts: NA
Location:  48.0203°N, 123.478°W
Report Text: KCLM 260853Z AUTO 25010KT 10SM FEW070 SCT085 10/05 A2976 RMK AO2 RAE0754 SLP077 P0000 60002 T01000050 51052 TSNO $
Loading
Personal Weather Stations






























Interactive Weather Map New forecast layout! Learn more

10-Day Weather Forecast

Advertisements
Track Severe Weather on mobile